sensor_id;sensor_type;location;lat;lon;timestamp;P1;durP1;ratioP1;P2;durP2;ratioP2
51048;SDS011;37084;55.228;36.450;2023-04-01T00:00:46;14.73;;;7.00;;
51048;SDS011;37084;55.228;36.450;2023-04-01T00:03:47;14.75;;;7.78;;
51048;SDS011;37084;55.228;36.450;2023-04-01T00:06:48;14.10;;;7.15;;
51048;SDS011;37084;55.228;36.450;2023-04-01T00:09:50;12.98;;;5.85;;
51048;SDS011;37084;55.228;36.450;2023-04-01T00:12:51;17.63;;;7.75;;
51048;SDS011;37084;55.228;36.450;2023-04-01T00:15:54;15.90;;;7.45;;
51048;SDS011;37084;55.228;36.450;2023-04-01T00:18:56;15.82;;;6.88;;
51048;SDS011;37084;55.228;36.450;2023-04-01T00:21:57;15.80;;;6.63;;
51048;SDS011;37084;55.228;36.450;2023-04-01T00:24:58;14.70;;;6.70;;
51048;SDS011;37084;55.228;36.450;2023-04-01T00:28:00;14.02;;;7.00;;
51048;SDS011;37084;55.228;36.450;2023-04-01T00:31:05;15.70;;;7.25;;
51048;SDS011;37084;55.228;36.450;2023-04-01T00:34:07;14.00;;;7.10;;
51048;SDS011;37084;55.228;36.450;2023-04-01T00:37:08;14.93;;;7.45;;
51048;SDS011;37084;55.228;36.450;2023-04-01T00:40:20;15.95;;;6.35;;
51048;SDS011;37084;55.228;36.450;2023-04-01T00:43:31;14.20;;;7.10;;
51048;SDS011;37084;55.228;36.450;2023-04-01T00:46:32;16.60;;;7.47;;
51048;SDS011;37084;55.228;36.450;2023-04-01T00:49:35;18.13;;;8.13;;
51048;SDS011;37084;55.228;36.450;2023-04-01T00:52:38;13.77;;;7.70;;
51048;SDS011;37084;55.228;36.450;2023-04-01T00:55:40;18.05;;;7.78;;
51048;SDS011;37084;55.228;36.450;2023-04-01T00:58:46;17.08;;;7.75;;
51048;SDS011;37084;55.228;36.450;2023-04-01T01:01:50;17.33;;;8.63;;
51048;SDS011;37084;55.228;36.450;2023-04-01T01:04:51;16.60;;;7.90;;
51048;SDS011;37084;55.228;36.450;2023-04-01T01:10:54;18.23;;;7.85;;
51048;SDS011;37084;55.228;36.450;2023-04-01T01:14:01;17.83;;;7.75;;
51048;SDS011;37084;55.228;36.450;2023-04-01T01:27:23;19.40;;;8.43;;
51048;SDS011;37084;55.228;36.450;2023-04-01T01:37:17;16.52;;;7.95;;
51048;SDS011;37084;55.228;36.450;2023-04-01T01:40:22;17.20;;;8.32;;
51048;SDS011;37084;55.228;36.450;2023-04-01T01:43:26;17.30;;;7.78;;
51048;SDS011;37084;55.228;36.450;2023-04-01T01:46:33;16.15;;;7.00;;
51048;SDS011;37084;55.228;36.450;2023-04-01T01:49:34;15.50;;;6.97;;
51048;SDS011;37084;55.228;36.450;2023-04-01T01:52:36;13.40;;;7.32;;
51048;SDS011;37084;55.228;36.450;2023-04-01T01:55:38;15.93;;;8.05;;
51048;SDS011;37084;55.228;36.450;2023-04-01T01:58:43;15.68;;;7.03;;
51048;SDS011;37084;55.228;36.450;2023-04-01T02:01:49;17.35;;;9.05;;
51048;SDS011;37084;55.228;36.450;2023-04-01T02:04:52;18.35;;;7.80;;
51048;SDS011;37084;55.228;36.450;2023-04-01T02:08:01;15.55;;;8.68;;
51048;SDS011;37084;55.228;36.450;2023-04-01T02:11:08;14.40;;;7.43;;
51048;SDS011;37084;55.228;36.450;2023-04-01T02:14:18;17.23;;;7.07;;
51048;SDS011;37084;55.228;36.450;2023-04-01T02:17:23;16.15;;;7.88;;
51048;SDS011;37084;55.228;36.450;2023-04-01T02:20:27;19.08;;;7.70;;
51048;SDS011;37084;55.228;36.450;2023-04-01T02:23:31;16.13;;;8.00;;
51048;SDS011;37084;55.228;36.450;2023-04-01T02:26:35;16.58;;;7.40;;
51048;SDS011;37084;55.228;36.450;2023-04-01T02:29:37;14.40;;;7.70;;
51048;SDS011;37084;55.228;36.450;2023-04-01T02:32:41;15.55;;;7.32;;
51048;SDS011;37084;55.228;36.450;2023-04-01T02:35:43;16.05;;;7.53;;
51048;SDS011;37084;55.228;36.450;2023-04-01T02:38:44;14.35;;;7.10;;
51048;SDS011;37084;55.228;36.450;2023-04-01T02:41:46;13.63;;;7.00;;
51048;SDS011;37084;55.228;36.450;2023-04-01T02:44:47;13.73;;;6.82;;
51048;SDS011;37084;55.228;36.450;2023-04-01T02:47:48;16.17;;;7.35;;
51048;SDS011;37084;55.228;36.450;2023-04-01T02:50:50;15.57;;;7.43;;
51048;SDS011;37084;55.228;36.450;2023-04-01T02:53:51;14.98;;;7.75;;
51048;SDS011;37084;55.228;36.450;2023-04-01T02:56:52;14.15;;;7.90;;
51048;SDS011;37084;55.228;36.450;2023-04-01T02:59:54;14.27;;;6.25;;
51048;SDS011;37084;55.228;36.450;2023-04-01T03:02:55;17.98;;;7.85;;
51048;SDS011;37084;55.228;36.450;2023-04-01T03:05:57;17.10;;;7.25;;
51048;SDS011;37084;55.228;36.450;2023-04-01T03:09:00;13.02;;;6.90;;
51048;SDS011;37084;55.228;36.450;2023-04-01T03:12:02;16.00;;;7.68;;
51048;SDS011;37084;55.228;36.450;2023-04-01T03:15:06;12.43;;;6.28;;
51048;SDS011;37084;55.228;36.450;2023-04-01T03:18:14;14.82;;;5.97;;
51048;SDS011;37084;55.228;36.450;2023-04-01T03:21:20;14.10;;;6.75;;
51048;SDS011;37084;55.228;36.450;2023-04-01T03:24:24;16.50;;;8.00;;
51048;SDS011;37084;55.228;36.450;2023-04-01T03:27:25;13.18;;;6.65;;
51048;SDS011;37084;55.228;36.450;2023-04-01T03:30:26;14.77;;;7.05;;
51048;SDS011;37084;55.228;36.450;2023-04-01T03:33:28;14.18;;;6.57;;
51048;SDS011;37084;55.228;36.450;2023-04-01T03:36:29;11.73;;;6.72;;
51048;SDS011;37084;55.228;36.450;2023-04-01T03:39:30;13.48;;;6.20;;
51048;SDS011;37084;55.228;36.450;2023-04-01T03:42:32;15.73;;;7.22;;
51048;SDS011;37084;55.228;36.450;2023-04-01T03:45:33;16.55;;;6.72;;
51048;SDS011;37084;55.228;36.450;2023-04-01T03:48:34;15.45;;;7.22;;
51048;SDS011;37084;55.228;36.450;2023-04-01T03:51:36;15.30;;;6.35;;
51048;SDS011;37084;55.228;36.450;2023-04-01T03:54:37;15.15;;;6.50;;
51048;SDS011;37084;55.228;36.450;2023-04-01T03:57:39;12.90;;;6.78;;
51048;SDS011;37084;55.228;36.450;2023-04-01T04:00:49;13.90;;;7.15;;
51048;SDS011;37084;55.228;36.450;2023-04-01T04:03:50;12.30;;;6.95;;
51048;SDS011;37084;55.228;36.450;2023-04-01T04:06:52;14.02;;;6.50;;
51048;SDS011;37084;55.228;36.450;2023-04-01T04:09:56;13.35;;;7.13;;
51048;SDS011;37084;55.228;36.450;2023-04-01T04:12:57;11.70;;;5.93;;
51048;SDS011;37084;55.228;36.450;2023-04-01T04:16:02;10.57;;;5.93;;
51048;SDS011;37084;55.228;36.450;2023-04-01T04:19:04;15.10;;;7.10;;
51048;SDS011;37084;55.228;36.450;2023-04-01T04:22:06;15.85;;;6.75;;
51048;SDS011;37084;55.228;36.450;2023-04-01T04:25:07;13.82;;;6.40;;
51048;SDS011;37084;55.228;36.450;2023-04-01T04:28:09;12.35;;;5.93;;
51048;SDS011;37084;55.228;36.450;2023-04-01T04:31:11;12.70;;;6.32;;
51048;SDS011;37084;55.228;36.450;2023-04-01T04:34:15;11.88;;;6.22;;
51048;SDS011;37084;55.228;36.450;2023-04-01T04:37:16;12.13;;;5.70;;
51048;SDS011;37084;55.228;36.450;2023-04-01T04:40:18;10.75;;;6.00;;
51048;SDS011;37084;55.228;36.450;2023-04-01T04:43:19;12.15;;;6.00;;
51048;SDS011;37084;55.228;36.450;2023-04-01T04:46:22;10.25;;;5.70;;
51048;SDS011;37084;55.228;36.450;2023-04-01T04:49:28;10.43;;;6.00;;
51048;SDS011;37084;55.228;36.450;2023-04-01T04:52:30;11.35;;;5.82;;
51048;SDS011;37084;55.228;36.450;2023-04-01T04:55:31;10.23;;;5.10;;
51048;SDS011;37084;55.228;36.450;2023-04-01T04:58:50;12.30;;;5.78;;
51048;SDS011;37084;55.228;36.450;2023-04-01T05:01:57;11.15;;;5.88;;
51048;SDS011;37084;55.228;36.450;2023-04-01T05:04:58;7.68;;;4.15;;
51048;SDS011;37084;55.228;36.450;2023-04-01T05:07:59;8.00;;;5.45;;
51048;SDS011;37084;55.228;36.450;2023-04-01T05:11:01;9.52;;;5.45;;
51048;SDS011;37084;55.228;36.450;2023-04-01T05:14:04;9.18;;;5.40;;
51048;SDS011;37084;55.228;36.450;2023-04-01T05:17:10;11.43;;;6.45;;
51048;SDS011;37084;55.228;36.450;2023-04-01T05:20:12;9.57;;;3.90;;
51048;SDS011;37084;55.228;36.450;2023-04-01T05:23:14;12.93;;;5.63;;
51048;SDS011;37084;55.228;36.450;2023-04-01T05:26:16;9.68;;;5.13;;
51048;SDS011;37084;55.228;36.450;2023-04-01T05:29:17;11.15;;;5.03;;
51048;SDS011;37084;55.228;36.450;2023-04-01T05:32:21;12.13;;;5.47;;
51048;SDS011;37084;55.228;36.450;2023-04-01T05:35:23;10.63;;;5.65;;
51048;SDS011;37084;55.228;36.450;2023-04-01T05:38:24;9.18;;;4.30;;
51048;SDS011;37084;55.228;36.450;2023-04-01T05:41:25;9.27;;;5.57;;
51048;SDS011;37084;55.228;36.450;2023-04-01T05:44:27;10.60;;;6.03;;
51048;SDS011;37084;55.228;36.450;2023-04-01T05:47:48;9.45;;;5.68;;
51048;SDS011;37084;55.228;36.450;2023-04-01T05:50:52;9.95;;;6.13;;
51048;SDS011;37084;55.228;36.450;2023-04-01T05:53:53;10.63;;;5.72;;
51048;SDS011;37084;55.228;36.450;2023-04-01T05:56:55;8.90;;;5.25;;
51048;SDS011;37084;55.228;36.450;2023-04-01T05:59:56;8.98;;;5.95;;
51048;SDS011;37084;55.228;36.450;2023-04-01T06:06:02;10.10;;;5.68;;
51048;SDS011;37084;55.228;36.450;2023-04-01T06:09:10;8.50;;;5.30;;
51048;SDS011;37084;55.228;36.450;2023-04-01T06:15:37;9.27;;;5.25;;
51048;SDS011;37084;55.228;36.450;2023-04-01T06:25:12;9.80;;;5.68;;
51048;SDS011;37084;55.228;36.450;2023-04-01T06:28:40;6.30;;;4.07;;
51048;SDS011;37084;55.228;36.450;2023-04-01T06:31:51;8.15;;;4.47;;
51048;SDS011;37084;55.228;36.450;2023-04-01T06:39:20;6.93;;;4.57;;
51048;SDS011;37084;55.228;36.450;2023-04-01T06:57:00;6.50;;;4.15;;
51048;SDS011;37084;55.228;36.450;2023-04-01T07:00:19;6.25;;;3.92;;
51048;SDS011;37084;55.228;36.450;2023-04-01T07:03:30;9.32;;;4.82;;
51048;SDS011;37084;55.228;36.450;2023-04-01T07:06:36;7.85;;;6.32;;
51048;SDS011;37084;55.228;36.450;2023-04-01T07:09:57;6.18;;;3.92;;
51048;SDS011;37084;55.228;36.450;2023-04-01T07:13:05;3.85;;;2.85;;
51048;SDS011;37084;55.228;36.450;2023-04-01T07:19:52;3.25;;;2.95;;
51048;SDS011;37084;55.228;36.450;2023-04-01T07:23:00;4.78;;;3.75;;
51048;SDS011;37084;55.228;36.450;2023-04-01T07:26:30;3.38;;;2.90;;
51048;SDS011;37084;55.228;36.450;2023-04-01T07:29:50;5.80;;;2.90;;
51048;SDS011;37084;55.228;36.450;2023-04-01T07:32:56;5.75;;;2.97;;
51048;SDS011;37084;55.228;36.450;2023-04-01T07:42:43;4.03;;;2.45;;
51048;SDS011;37084;55.228;36.450;2023-04-01T07:46:07;3.00;;;1.90;;
51048;SDS011;37084;55.228;36.450;2023-04-01T07:49:32;4.13;;;3.20;;
51048;SDS011;37084;55.228;36.450;2023-04-01T07:53:10;4.25;;;3.08;;
51048;SDS011;37084;55.228;36.450;2023-04-01T07:56:23;4.50;;;3.63;;
51048;SDS011;37084;55.228;36.450;2023-04-01T08:06:26;5.45;;;2.30;;
51048;SDS011;37084;55.228;36.450;2023-04-01T08:09:42;5.30;;;3.15;;
51048;SDS011;37084;55.228;36.450;2023-04-01T08:24:01;4.80;;;2.70;;
51048;SDS011;37084;55.228;36.450;2023-04-01T08:27:13;4.53;;;3.63;;
51048;SDS011;37084;55.228;36.450;2023-04-01T08:33:34;6.25;;;4.22;;
51048;SDS011;37084;55.228;36.450;2023-04-01T08:36:41;5.95;;;4.07;;
51048;SDS011;37084;55.228;36.450;2023-04-01T08:43:10;7.82;;;3.42;;
51048;SDS011;37084;55.228;36.450;2023-04-01T08:49:37;5.50;;;4.38;;
51048;SDS011;37084;55.228;36.450;2023-04-01T08:56:56;5.75;;;3.83;;
51048;SDS011;37084;55.228;36.450;2023-04-01T09:00:46;5.88;;;4.45;;
51048;SDS011;37084;55.228;36.450;2023-04-01T09:04:14;6.00;;;3.30;;
51048;SDS011;37084;55.228;36.450;2023-04-01T09:21:12;2.45;;;2.25;;
51048;SDS011;37084;55.228;36.450;2023-04-01T09:24:24;2.70;;;2.40;;
51048;SDS011;37084;55.228;36.450;2023-04-01T09:27:37;3.80;;;3.10;;
51048;SDS011;37084;55.228;36.450;2023-04-01T10:14:46;4.85;;;3.83;;
51048;SDS011;37084;55.228;36.450;2023-04-01T10:18:13;5.25;;;3.58;;
51048;SDS011;37084;55.228;36.450;2023-04-01T10:29:00;3.50;;;3.20;;
51048;SDS011;37084;55.228;36.450;2023-04-01T10:39:19;7.22;;;3.47;;
51048;SDS011;37084;55.228;36.450;2023-04-01T11:00:31;3.95;;;2.95;;
51048;SDS011;37084;55.228;36.450;2023-04-01T11:11:53;5.28;;;3.33;;
51048;SDS011;37084;55.228;36.450;2023-04-01T11:25:49;6.07;;;3.47;;
51048;SDS011;37084;55.228;36.450;2023-04-01T11:35:59;4.63;;;3.45;;
51048;SDS011;37084;55.228;36.450;2023-04-01T11:42:42;6.25;;;4.07;;
51048;SDS011;37084;55.228;36.450;2023-04-01T11:46:37;5.03;;;3.55;;
51048;SDS011;37084;55.228;36.450;2023-04-01T11:49:56;7.10;;;3.80;;
51048;SDS011;37084;55.228;36.450;2023-04-01T11:53:23;5.15;;;3.90;;
51048;SDS011;37084;55.228;36.450;2023-04-01T12:03:37;5.88;;;3.63;;
51048;SDS011;37084;55.228;36.450;2023-04-01T12:17:09;5.68;;;3.55;;
51048;SDS011;37084;55.228;36.450;2023-04-01T12:20:38;6.22;;;3.70;;
51048;SDS011;37084;55.228;36.450;2023-04-01T12:40:38;9.90;;;4.30;;
51048;SDS011;37084;55.228;36.450;2023-04-01T12:47:18;5.95;;;4.70;;
51048;SDS011;37084;55.228;36.450;2023-04-01T12:53:32;8.10;;;5.68;;
51048;SDS011;37084;55.228;36.450;2023-04-01T13:00:25;6.72;;;5.68;;
51048;SDS011;37084;55.228;36.450;2023-04-01T13:07:09;7.72;;;5.53;;
51048;SDS011;37084;55.228;36.450;2023-04-01T13:10:45;6.13;;;4.75;;
51048;SDS011;37084;55.228;36.450;2023-04-01T13:27:42;9.20;;;6.03;;
51048;SDS011;37084;55.228;36.450;2023-04-01T13:37:24;9.60;;;6.20;;
51048;SDS011;37084;55.228;36.450;2023-04-01T13:40:33;7.78;;;5.22;;
51048;SDS011;37084;55.228;36.450;2023-04-01T13:43:45;7.82;;;5.68;;
51048;SDS011;37084;55.228;36.450;2023-04-01T13:50:13;7.70;;;5.03;;
51048;SDS011;37084;55.228;36.450;2023-04-01T14:00:32;6.85;;;4.97;;
51048;SDS011;37084;55.228;36.450;2023-04-01T14:10:45;7.00;;;3.92;;
51048;SDS011;37084;55.228;36.450;2023-04-01T14:14:20;8.05;;;4.90;;
51048;SDS011;37084;55.228;36.450;2023-04-01T14:20:52;8.00;;;5.78;;
51048;SDS011;37084;55.228;36.450;2023-04-01T14:24:22;10.05;;;5.93;;
51048;SDS011;37084;55.228;36.450;2023-04-01T14:27:47;8.73;;;6.30;;
51048;SDS011;37084;55.228;36.450;2023-04-01T14:30:57;9.57;;;6.65;;
51048;SDS011;37084;55.228;36.450;2023-04-01T14:34:25;7.72;;;5.20;;
51048;SDS011;37084;55.228;36.450;2023-04-01T14:38:02;13.70;;;7.65;;
51048;SDS011;37084;55.228;36.450;2023-04-01T14:41:13;13.80;;;8.05;;
51048;SDS011;37084;55.228;36.450;2023-04-01T14:48:13;11.70;;;7.65;;
51048;SDS011;37084;55.228;36.450;2023-04-01T14:51:21;8.52;;;5.43;;
51048;SDS011;37084;55.228;36.450;2023-04-01T14:54:36;8.50;;;6.07;;
51048;SDS011;37084;55.228;36.450;2023-04-01T14:57:38;9.45;;;6.25;;
51048;SDS011;37084;55.228;36.450;2023-04-01T15:00:48;8.13;;;4.30;;
51048;SDS011;37084;55.228;36.450;2023-04-01T15:14:27;9.73;;;6.50;;
51048;SDS011;37084;55.228;36.450;2023-04-01T15:27:49;12.00;;;7.00;;
51048;SDS011;37084;55.228;36.450;2023-04-01T15:41:11;10.48;;;6.90;;
51048;SDS011;37084;55.228;36.450;2023-04-01T15:44:37;13.57;;;7.75;;
51048;SDS011;37084;55.228;36.450;2023-04-01T15:51:11;11.60;;;8.98;;
51048;SDS011;37084;55.228;36.450;2023-04-01T15:54:27;12.30;;;8.00;;
51048;SDS011;37084;55.228;36.450;2023-04-01T16:09:02;15.20;;;9.05;;
51048;SDS011;37084;55.228;36.450;2023-04-01T16:11:48;13.88;;;8.55;;
51048;SDS011;37084;55.228;36.450;2023-04-01T16:18:34;12.73;;;9.00;;
51048;SDS011;37084;55.228;36.450;2023-04-01T16:21:53;16.60;;;9.60;;
51048;SDS011;37084;55.228;36.450;2023-04-01T16:25:17;15.38;;;9.57;;
51048;SDS011;37084;55.228;36.450;2023-04-01T16:28:31;14.27;;;8.85;;
51048;SDS011;37084;55.228;36.450;2023-04-01T16:31:37;12.98;;;8.32;;
51048;SDS011;37084;55.228;36.450;2023-04-01T16:41:25;15.93;;;7.80;;
51048;SDS011;37084;55.228;36.450;2023-04-01T16:44:54;18.48;;;10.30;;
51048;SDS011;37084;55.228;36.450;2023-04-01T16:48:15;15.82;;;10.70;;
51048;SDS011;37084;55.228;36.450;2023-04-01T16:51:18;16.23;;;8.18;;
51048;SDS011;37084;55.228;36.450;2023-04-01T16:54:35;14.95;;;10.05;;
51048;SDS011;37084;55.228;36.450;2023-04-01T16:57:52;18.50;;;10.13;;
51048;SDS011;37084;55.228;36.450;2023-04-01T17:01:07;15.93;;;11.02;;
51048;SDS011;37084;55.228;36.450;2023-04-01T17:04:23;18.05;;;9.52;;
51048;SDS011;37084;55.228;36.450;2023-04-01T17:07:43;14.50;;;8.55;;
51048;SDS011;37084;55.228;36.450;2023-04-01T17:11:10;19.83;;;10.40;;
51048;SDS011;37084;55.228;36.450;2023-04-01T17:14:14;19.05;;;11.20;;
51048;SDS011;37084;55.228;36.450;2023-04-01T17:21:10;17.38;;;10.77;;
51048;SDS011;37084;55.228;36.450;2023-04-01T17:27:47;15.00;;;9.70;;
51048;SDS011;37084;55.228;36.450;2023-04-01T17:31:20;15.50;;;9.55;;
51048;SDS011;37084;55.228;36.450;2023-04-01T17:34:42;17.05;;;10.02;;
51048;SDS011;37084;55.228;36.450;2023-04-01T17:45:18;16.80;;;9.75;;
51048;SDS011;37084;55.228;36.450;2023-04-01T17:58:47;15.85;;;9.55;;
51048;SDS011;37084;55.228;36.450;2023-04-01T18:02:02;16.60;;;9.70;;
51048;SDS011;37084;55.228;36.450;2023-04-01T18:15:40;14.77;;;9.57;;
51048;SDS011;37084;55.228;36.450;2023-04-01T18:18:54;16.83;;;9.93;;
51048;SDS011;37084;55.228;36.450;2023-04-01T18:22:39;17.05;;;9.27;;
51048;SDS011;37084;55.228;36.450;2023-04-01T18:25:44;18.00;;;10.23;;
51048;SDS011;37084;55.228;36.450;2023-04-01T18:39:30;17.92;;;9.95;;
51048;SDS011;37084;55.228;36.450;2023-04-01T18:50:07;14.48;;;7.50;;
51048;SDS011;37084;55.228;36.450;2023-04-01T18:56:43;17.10;;;10.10;;
51048;SDS011;37084;55.228;36.450;2023-04-01T18:59:56;14.60;;;9.30;;
51048;SDS011;37084;55.228;36.450;2023-04-01T19:03:23;16.35;;;9.63;;
51048;SDS011;37084;55.228;36.450;2023-04-01T19:06:50;15.55;;;10.02;;
51048;SDS011;37084;55.228;36.450;2023-04-01T19:09:55;16.75;;;9.65;;
51048;SDS011;37084;55.228;36.450;2023-04-01T19:16:53;16.23;;;9.55;;
51048;SDS011;37084;55.228;36.450;2023-04-01T19:30:39;15.35;;;8.13;;
51048;SDS011;37084;55.228;36.450;2023-04-01T19:33:58;13.43;;;8.70;;
51048;SDS011;37084;55.228;36.450;2023-04-01T19:50:53;16.38;;;9.50;;
51048;SDS011;37084;55.228;36.450;2023-04-01T19:53:59;16.73;;;10.00;;
51048;SDS011;37084;55.228;36.450;2023-04-01T20:00:44;15.85;;;9.30;;
51048;SDS011;37084;55.228;36.450;2023-04-01T20:03:55;14.73;;;8.43;;
51048;SDS011;37084;55.228;36.450;2023-04-01T20:07:23;16.30;;;7.28;;
51048;SDS011;37084;55.228;36.450;2023-04-01T20:20:19;15.75;;;9.25;;
51048;SDS011;37084;55.228;36.450;2023-04-01T20:26:43;15.10;;;8.77;;
51048;SDS011;37084;55.228;36.450;2023-04-01T20:33:48;18.42;;;9.85;;
51048;SDS011;37084;55.228;36.450;2023-04-01T20:43:50;14.07;;;8.63;;
51048;SDS011;37084;55.228;36.450;2023-04-01T20:50:01;15.07;;;9.35;;
51048;SDS011;37084;55.228;36.450;2023-04-01T20:56:37;15.93;;;9.85;;
51048;SDS011;37084;55.228;36.450;2023-04-01T21:10:12;17.33;;;9.55;;
51048;SDS011;37084;55.228;36.450;2023-04-01T21:16:52;16.92;;;9.70;;
51048;SDS011;37084;55.228;36.450;2023-04-01T21:20:16;17.27;;;9.13;;
51048;SDS011;37084;55.228;36.450;2023-04-01T21:29:53;20.20;;;9.52;;
51048;SDS011;37084;55.228;36.450;2023-04-01T21:33:28;17.80;;;10.05;;
51048;SDS011;37084;55.228;36.450;2023-04-01T21:44:10;16.95;;;9.23;;
51048;SDS011;37084;55.228;36.450;2023-04-01T21:50:47;17.33;;;9.57;;
51048;SDS011;37084;55.228;36.450;2023-04-01T22:01:01;24.23;;;10.98;;
51048;SDS011;37084;55.228;36.450;2023-04-01T22:07:41;19.00;;;10.20;;
51048;SDS011;37084;55.228;36.450;2023-04-01T22:10:48;20.25;;;10.45;;
51048;SDS011;37084;55.228;36.450;2023-04-01T22:17:26;20.17;;;9.90;;
51048;SDS011;37084;55.228;36.450;2023-04-01T22:23:46;17.73;;;9.98;;
51048;SDS011;37084;55.228;36.450;2023-04-01T22:40:23;19.83;;;10.75;;
51048;SDS011;37084;55.228;36.450;2023-04-01T22:43:39;19.08;;;10.38;;
51048;SDS011;37084;55.228;36.450;2023-04-01T22:46:53;19.30;;;9.43;;
51048;SDS011;37084;55.228;36.450;2023-04-01T22:50:10;21.30;;;11.23;;
51048;SDS011;37084;55.228;36.450;2023-04-01T22:56:37;21.80;;;10.38;;
51048;SDS011;37084;55.228;36.450;2023-04-01T22:59:54;20.92;;;9.55;;
51048;SDS011;37084;55.228;36.450;2023-04-01T23:03:08;21.90;;;10.90;;
51048;SDS011;37084;55.228;36.450;2023-04-01T23:06:20;19.83;;;10.07;;
51048;SDS011;37084;55.228;36.450;2023-04-01T23:09:26;26.95;;;11.48;;
51048;SDS011;37084;55.228;36.450;2023-04-01T23:12:29;20.08;;;11.27;;
51048;SDS011;37084;55.228;36.450;2023-04-01T23:15:32;22.90;;;11.60;;
51048;SDS011;37084;55.228;36.450;2023-04-01T23:18:52;21.17;;;10.63;;
51048;SDS011;37084;55.228;36.450;2023-04-01T23:22:34;21.35;;;9.90;;
51048;SDS011;37084;55.228;36.450;2023-04-01T23:29:35;21.88;;;11.00;;
51048;SDS011;37084;55.228;36.450;2023-04-01T23:32:39;22.48;;;11.55;;
51048;SDS011;37084;55.228;36.450;2023-04-01T23:35:53;22.73;;;11.68;;
51048;SDS011;37084;55.228;36.450;2023-04-01T23:42:27;26.95;;;11.32;;
51048;SDS011;37084;55.228;36.450;2023-04-01T23:45:30;23.58;;;11.10;;
51048;SDS011;37084;55.228;36.450;2023-04-01T23:48:36;26.38;;;11.05;;
51048;SDS011;37084;55.228;36.450;2023-04-01T23:51:46;27.08;;;11.18;;
51048;SDS011;37084;55.228;36.450;2023-04-01T23:54:58;22.85;;;9.38;;
51048;SDS011;37084;55.228;36.450;2023-04-01T23:58:18;23.77;;;11.10;;
